sensor_id;sensor_type;location;lat;lon;timestamp;P1;durP1;ratioP1;P2;durP2;ratioP2
5125;SDS011;63008;53.112;8.896;2022-12-07T00:01:47;24.97;;;15.70;;
5125;SDS011;63008;53.112;8.896;2022-12-07T00:03:49;23.20;;;15.70;;
5125;SDS011;63008;53.112;8.896;2022-12-07T00:05:51;21.33;;;15.13;;
5125;SDS011;63008;53.112;8.896;2022-12-07T00:07:52;23.50;;;15.30;;
5125;SDS011;63008;53.112;8.896;2022-12-07T00:09:53;25.23;;;16.00;;
5125;SDS011;63008;53.112;8.896;2022-12-07T00:11:54;25.00;;;16.70;;
5125;SDS011;63008;53.112;8.896;2022-12-07T00:13:57;25.73;;;15.63;;
5125;SDS011;63008;53.112;8.896;2022-12-07T00:16:00;23.40;;;15.10;;
5125;SDS011;63008;53.112;8.896;2022-12-07T00:18:04;25.90;;;14.27;;
5125;SDS011;63008;53.112;8.896;2022-12-07T00:20:05;27.90;;;15.23;;
5125;SDS011;63008;53.112;8.896;2022-12-07T00:22:07;25.80;;;14.73;;
5125;SDS011;63008;53.112;8.896;2022-12-07T00:24:09;21.97;;;14.90;;
5125;SDS011;63008;53.112;8.896;2022-12-07T00:26:12;21.07;;;14.23;;
5125;SDS011;63008;53.112;8.896;2022-12-07T00:28:17;20.03;;;13.50;;
5125;SDS011;63008;53.112;8.896;2022-12-07T00:30:18;19.33;;;12.33;;
5125;SDS011;63008;53.112;8.896;2022-12-07T00:32:19;20.87;;;13.27;;
5125;SDS011;63008;53.112;8.896;2022-12-07T00:34:20;17.47;;;12.60;;
5125;SDS011;63008;53.112;8.896;2022-12-07T00:36:22;23.10;;;12.57;;
5125;SDS011;63008;53.112;8.896;2022-12-07T00:38:24;20.63;;;11.40;;
5125;SDS011;63008;53.112;8.896;2022-12-07T00:40:27;15.30;;;10.70;;
5125;SDS011;63008;53.112;8.896;2022-12-07T00:42:28;16.67;;;10.57;;
5125;SDS011;63008;53.112;8.896;2022-12-07T00:44:29;21.70;;;10.30;;
5125;SDS011;63008;53.112;8.896;2022-12-07T00:46:30;18.60;;;11.33;;
5125;SDS011;63008;53.112;8.896;2022-12-07T00:48:31;18.80;;;10.50;;
5125;SDS011;63008;53.112;8.896;2022-12-07T00:50:32;18.60;;;11.50;;
5125;SDS011;63008;53.112;8.896;2022-12-07T00:52:33;20.53;;;11.30;;
5125;SDS011;63008;53.112;8.896;2022-12-07T00:54:34;20.13;;;10.23;;
5125;SDS011;63008;53.112;8.896;2022-12-07T00:56:35;17.40;;;9.10;;
5125;SDS011;63008;53.112;8.896;2022-12-07T00:58:36;20.50;;;10.17;;
5125;SDS011;63008;53.112;8.896;2022-12-07T01:00:38;22.67;;;11.10;;
5125;SDS011;63008;53.112;8.896;2022-12-07T01:02:40;24.93;;;11.60;;
5125;SDS011;63008;53.112;8.896;2022-12-07T01:04:41;13.00;;;9.70;;
5125;SDS011;63008;53.112;8.896;2022-12-07T01:06:42;17.20;;;9.10;;
5125;SDS011;63008;53.112;8.896;2022-12-07T01:08:43;19.50;;;9.83;;
5125;SDS011;63008;53.112;8.896;2022-12-07T01:10:44;17.33;;;9.10;;
5125;SDS011;63008;53.112;8.896;2022-12-07T01:12:45;16.47;;;9.10;;
5125;SDS011;63008;53.112;8.896;2022-12-07T01:14:46;15.73;;;8.30;;
5125;SDS011;63008;53.112;8.896;2022-12-07T01:16:47;20.03;;;9.83;;
5125;SDS011;63008;53.112;8.896;2022-12-07T01:18:49;18.93;;;7.97;;
5125;SDS011;63008;53.112;8.896;2022-12-07T01:21:04;19.87;;;10.20;;
5125;SDS011;63008;53.112;8.896;2022-12-07T01:23:07;14.33;;;8.90;;
5125;SDS011;63008;53.112;8.896;2022-12-07T01:25:09;11.40;;;8.10;;
5125;SDS011;63008;53.112;8.896;2022-12-07T01:27:11;15.07;;;8.03;;
5125;SDS011;63008;53.112;8.896;2022-12-07T01:29:13;16.60;;;7.97;;
5125;SDS011;63008;53.112;8.896;2022-12-07T01:31:15;13.37;;;7.97;;
5125;SDS011;63008;53.112;8.896;2022-12-07T01:33:18;15.20;;;7.20;;
5125;SDS011;63008;53.112;8.896;2022-12-07T01:35:19;17.57;;;7.77;;
5125;SDS011;63008;53.112;8.896;2022-12-07T01:37:23;10.90;;;6.20;;
5125;SDS011;63008;53.112;8.896;2022-12-07T01:39:24;11.90;;;6.20;;
5125;SDS011;63008;53.112;8.896;2022-12-07T01:41:26;8.73;;;6.23;;
5125;SDS011;63008;53.112;8.896;2022-12-07T01:43:30;9.70;;;5.57;;
5125;SDS011;63008;53.112;8.896;2022-12-07T01:45:41;10.43;;;5.13;;
5125;SDS011;63008;53.112;8.896;2022-12-07T01:48:01;10.50;;;4.73;;
5125;SDS011;63008;53.112;8.896;2022-12-07T01:50:02;11.80;;;5.83;;
5125;SDS011;63008;53.112;8.896;2022-12-07T01:52:13;11.70;;;6.30;;
5125;SDS011;63008;53.112;8.896;2022-12-07T01:54:18;12.03;;;5.97;;
5125;SDS011;63008;53.112;8.896;2022-12-07T01:56:23;14.90;;;4.97;;
5125;SDS011;63008;53.112;8.896;2022-12-07T01:58:26;12.87;;;5.40;;
5125;SDS011;63008;53.112;8.896;2022-12-07T02:00:28;15.70;;;6.53;;
5125;SDS011;63008;53.112;8.896;2022-12-07T02:02:31;14.13;;;4.60;;
5125;SDS011;63008;53.112;8.896;2022-12-07T02:04:34;5.07;;;3.80;;
5125;SDS011;63008;53.112;8.896;2022-12-07T02:06:37;8.00;;;4.00;;
5125;SDS011;63008;53.112;8.896;2022-12-07T02:08:38;6.37;;;4.20;;
5125;SDS011;63008;53.112;8.896;2022-12-07T02:10:40;6.57;;;4.37;;
5125;SDS011;63008;53.112;8.896;2022-12-07T02:12:41;8.60;;;4.60;;
5125;SDS011;63008;53.112;8.896;2022-12-07T02:14:45;4.67;;;3.63;;
5125;SDS011;63008;53.112;8.896;2022-12-07T02:17:04;12.87;;;5.90;;
5125;SDS011;63008;53.112;8.896;2022-12-07T02:19:34;12.20;;;4.57;;
5125;SDS011;63008;53.112;8.896;2022-12-07T02:22:00;11.07;;;4.73;;
5125;SDS011;63008;53.112;8.896;2022-12-07T02:24:22;9.40;;;4.47;;
5125;SDS011;63008;53.112;8.896;2022-12-07T02:29:23;18.00;;;4.53;;
5125;SDS011;63008;53.112;8.896;2022-12-07T02:31:27;12.43;;;4.43;;
5125;SDS011;63008;53.112;8.896;2022-12-07T02:33:36;10.43;;;4.53;;
5125;SDS011;63008;53.112;8.896;2022-12-07T02:35:43;13.27;;;5.60;;
5125;SDS011;63008;53.112;8.896;2022-12-07T02:37:55;10.63;;;4.70;;
5125;SDS011;63008;53.112;8.896;2022-12-07T02:40:12;10.40;;;4.70;;
5125;SDS011;63008;53.112;8.896;2022-12-07T02:42:23;12.80;;;4.17;;
5125;SDS011;63008;53.112;8.896;2022-12-07T02:44:31;7.83;;;4.43;;
5125;SDS011;63008;53.112;8.896;2022-12-07T02:46:33;12.83;;;5.07;;
5125;SDS011;63008;53.112;8.896;2022-12-07T02:48:38;14.00;;;5.23;;
5125;SDS011;63008;53.112;8.896;2022-12-07T02:50:47;12.40;;;4.37;;
5125;SDS011;63008;53.112;8.896;2022-12-07T02:52:49;11.83;;;5.10;;
5125;SDS011;63008;53.112;8.896;2022-12-07T02:54:50;16.37;;;5.60;;
5125;SDS011;63008;53.112;8.896;2022-12-07T02:56:53;14.77;;;5.30;;
5125;SDS011;63008;53.112;8.896;2022-12-07T02:59:10;10.63;;;4.90;;
5125;SDS011;63008;53.112;8.896;2022-12-07T03:03:58;11.23;;;5.20;;
5125;SDS011;63008;53.112;8.896;2022-12-07T03:06:16;13.03;;;5.03;;
5125;SDS011;63008;53.112;8.896;2022-12-07T03:08:26;10.27;;;5.60;;
5125;SDS011;63008;53.112;8.896;2022-12-07T03:10:35;11.43;;;3.70;;
5125;SDS011;63008;53.112;8.896;2022-12-07T03:15:05;6.70;;;3.60;;
5125;SDS011;63008;53.112;8.896;2022-12-07T03:17:19;5.33;;;4.00;;
5125;SDS011;63008;53.112;8.896;2022-12-07T03:19:27;8.50;;;4.03;;
5125;SDS011;63008;53.112;8.896;2022-12-07T03:21:37;8.07;;;4.00;;
5125;SDS011;63008;53.112;8.896;2022-12-07T03:23:42;6.57;;;3.50;;
5125;SDS011;63008;53.112;8.896;2022-12-07T03:25:49;7.40;;;3.00;;
5125;SDS011;63008;53.112;8.896;2022-12-07T03:27:53;7.40;;;2.43;;
5125;SDS011;63008;53.112;8.896;2022-12-07T03:29:59;4.73;;;3.10;;
5125;SDS011;63008;53.112;8.896;2022-12-07T03:34:52;2.70;;;2.10;;
5125;SDS011;63008;53.112;8.896;2022-12-07T03:37:01;5.00;;;2.50;;
5125;SDS011;63008;53.112;8.896;2022-12-07T03:41:39;7.87;;;2.10;;
5125;SDS011;63008;53.112;8.896;2022-12-07T03:43:40;3.70;;;2.10;;
5125;SDS011;63008;53.112;8.896;2022-12-07T03:45:43;5.93;;;2.43;;
5125;SDS011;63008;53.112;8.896;2022-12-07T03:47:52;7.83;;;1.90;;
5125;SDS011;63008;53.112;8.896;2022-12-07T03:50:07;6.90;;;2.50;;
5125;SDS011;63008;53.112;8.896;2022-12-07T03:54:46;3.90;;;1.10;;
5125;SDS011;63008;53.112;8.896;2022-12-07T03:56:52;4.37;;;0.80;;
5125;SDS011;63008;53.112;8.896;2022-12-07T03:58:55;3.83;;;1.20;;
5125;SDS011;63008;53.112;8.896;2022-12-07T04:00:56;1.50;;;1.10;;
5125;SDS011;63008;53.112;8.896;2022-12-07T04:02:57;7.00;;;1.27;;
5125;SDS011;63008;53.112;8.896;2022-12-07T04:04:58;2.00;;;1.00;;
5125;SDS011;63008;53.112;8.896;2022-12-07T04:06:59;7.50;;;1.37;;
5125;SDS011;63008;53.112;8.896;2022-12-07T04:09:00;5.13;;;2.97;;
5125;SDS011;63008;53.112;8.896;2022-12-07T04:11:01;6.50;;;2.27;;
5125;SDS011;63008;53.112;8.896;2022-12-07T04:13:03;4.80;;;2.33;;
5125;SDS011;63008;53.112;8.896;2022-12-07T04:15:04;5.50;;;2.80;;
5125;SDS011;63008;53.112;8.896;2022-12-07T04:17:06;5.43;;;2.77;;
5125;SDS011;63008;53.112;8.896;2022-12-07T04:19:07;9.87;;;3.27;;
5125;SDS011;63008;53.112;8.896;2022-12-07T04:21:08;8.80;;;2.50;;
5125;SDS011;63008;53.112;8.896;2022-12-07T04:23:09;5.80;;;2.77;;
5125;SDS011;63008;53.112;8.896;2022-12-07T04:25:10;8.50;;;2.80;;
5125;SDS011;63008;53.112;8.896;2022-12-07T04:27:11;6.87;;;3.20;;
5125;SDS011;63008;53.112;8.896;2022-12-07T04:29:12;8.90;;;3.33;;
5125;SDS011;63008;53.112;8.896;2022-12-07T04:31:13;11.37;;;3.40;;
5125;SDS011;63008;53.112;8.896;2022-12-07T04:33:14;10.53;;;3.47;;
5125;SDS011;63008;53.112;8.896;2022-12-07T04:35:15;5.40;;;3.87;;
5125;SDS011;63008;53.112;8.896;2022-12-07T04:37:16;10.03;;;3.40;;
5125;SDS011;63008;53.112;8.896;2022-12-07T04:39:19;15.00;;;4.17;;
5125;SDS011;63008;53.112;8.896;2022-12-07T04:41:28;11.87;;;5.30;;
5125;SDS011;63008;53.112;8.896;2022-12-07T04:43:29;11.37;;;4.27;;
5125;SDS011;63008;53.112;8.896;2022-12-07T04:45:30;9.77;;;3.93;;
5125;SDS011;63008;53.112;8.896;2022-12-07T04:47:31;11.70;;;5.13;;
5125;SDS011;63008;53.112;8.896;2022-12-07T04:49:32;6.50;;;3.90;;
5125;SDS011;63008;53.112;8.896;2022-12-07T04:51:33;13.47;;;3.87;;
5125;SDS011;63008;53.112;8.896;2022-12-07T04:53:34;9.37;;;4.30;;
5125;SDS011;63008;53.112;8.896;2022-12-07T04:55:35;7.80;;;4.30;;
5125;SDS011;63008;53.112;8.896;2022-12-07T04:57:36;9.53;;;4.50;;
5125;SDS011;63008;53.112;8.896;2022-12-07T04:59:37;12.30;;;5.30;;
5125;SDS011;63008;53.112;8.896;2022-12-07T05:01:38;12.00;;;4.40;;
5125;SDS011;63008;53.112;8.896;2022-12-07T05:03:40;9.03;;;5.00;;
5125;SDS011;63008;53.112;8.896;2022-12-07T05:05:42;13.07;;;4.30;;
5125;SDS011;63008;53.112;8.896;2022-12-07T05:07:43;8.87;;;3.90;;
5125;SDS011;63008;53.112;8.896;2022-12-07T05:09:43;11.97;;;4.40;;
5125;SDS011;63008;53.112;8.896;2022-12-07T05:11:44;10.83;;;4.60;;
5125;SDS011;63008;53.112;8.896;2022-12-07T05:13:45;7.50;;;3.80;;
5125;SDS011;63008;53.112;8.896;2022-12-07T05:15:47;9.80;;;3.53;;
5125;SDS011;63008;53.112;8.896;2022-12-07T05:17:49;8.70;;;4.13;;
5125;SDS011;63008;53.112;8.896;2022-12-07T05:19:49;10.90;;;3.97;;
5125;SDS011;63008;53.112;8.896;2022-12-07T05:21:50;17.67;;;5.60;;
5125;SDS011;63008;53.112;8.896;2022-12-07T05:23:51;10.57;;;5.17;;
5125;SDS011;63008;53.112;8.896;2022-12-07T05:25:52;11.80;;;5.00;;
5125;SDS011;63008;53.112;8.896;2022-12-07T05:27:54;10.23;;;4.10;;
5125;SDS011;63008;53.112;8.896;2022-12-07T05:29:56;11.33;;;3.90;;
5125;SDS011;63008;53.112;8.896;2022-12-07T05:31:57;12.30;;;4.17;;
5125;SDS011;63008;53.112;8.896;2022-12-07T05:33:58;8.17;;;4.20;;
5125;SDS011;63008;53.112;8.896;2022-12-07T05:35:59;8.37;;;4.50;;
5125;SDS011;63008;53.112;8.896;2022-12-07T05:38:05;9.10;;;3.83;;
5125;SDS011;63008;53.112;8.896;2022-12-07T05:40:07;10.00;;;3.93;;
5125;SDS011;63008;53.112;8.896;2022-12-07T05:42:10;9.50;;;4.00;;
5125;SDS011;63008;53.112;8.896;2022-12-07T05:44:14;7.17;;;3.33;;
5125;SDS011;63008;53.112;8.896;2022-12-07T05:46:15;7.83;;;4.20;;
5125;SDS011;63008;53.112;8.896;2022-12-07T05:48:16;10.97;;;4.23;;
5125;SDS011;63008;53.112;8.896;2022-12-07T05:50:17;10.67;;;4.37;;
5125;SDS011;63008;53.112;8.896;2022-12-07T05:52:18;15.60;;;4.90;;
5125;SDS011;63008;53.112;8.896;2022-12-07T05:54:19;5.57;;;3.43;;
5125;SDS011;63008;53.112;8.896;2022-12-07T05:56:20;7.87;;;3.83;;
5125;SDS011;63008;53.112;8.896;2022-12-07T05:58:21;12.53;;;4.20;;
5125;SDS011;63008;53.112;8.896;2022-12-07T06:00:40;11.93;;;3.33;;
5125;SDS011;63008;53.112;8.896;2022-12-07T06:02:41;6.73;;;3.10;;
5125;SDS011;63008;53.112;8.896;2022-12-07T06:04:43;16.13;;;3.50;;
5125;SDS011;63008;53.112;8.896;2022-12-07T06:06:46;5.77;;;3.20;;
5125;SDS011;63008;53.112;8.896;2022-12-07T06:08:47;11.73;;;3.37;;
5125;SDS011;63008;53.112;8.896;2022-12-07T06:10:48;8.53;;;2.43;;
5125;SDS011;63008;53.112;8.896;2022-12-07T06:13:09;11.93;;;2.70;;
5125;SDS011;63008;53.112;8.896;2022-12-07T06:15:10;10.47;;;3.27;;
5125;SDS011;63008;53.112;8.896;2022-12-07T06:17:13;7.93;;;2.77;;
5125;SDS011;63008;53.112;8.896;2022-12-07T06:19:15;8.60;;;2.80;;
5125;SDS011;63008;53.112;8.896;2022-12-07T06:21:17;7.13;;;1.90;;
5125;SDS011;63008;53.112;8.896;2022-12-07T06:23:18;3.60;;;1.60;;
5125;SDS011;63008;53.112;8.896;2022-12-07T06:25:19;5.07;;;2.03;;
5125;SDS011;63008;53.112;8.896;2022-12-07T06:27:20;8.10;;;1.70;;
5125;SDS011;63008;53.112;8.896;2022-12-07T06:29:21;6.80;;;1.80;;
5125;SDS011;63008;53.112;8.896;2022-12-07T06:31:22;6.00;;;1.83;;
5125;SDS011;63008;53.112;8.896;2022-12-07T06:33:23;2.67;;;1.60;;
5125;SDS011;63008;53.112;8.896;2022-12-07T06:35:24;5.30;;;1.60;;
5125;SDS011;63008;53.112;8.896;2022-12-07T06:37:28;2.50;;;1.80;;
5125;SDS011;63008;53.112;8.896;2022-12-07T06:39:29;3.83;;;2.00;;
5125;SDS011;63008;53.112;8.896;2022-12-07T06:41:30;7.13;;;1.80;;
5125;SDS011;63008;53.112;8.896;2022-12-07T06:43:32;6.33;;;1.87;;
5125;SDS011;63008;53.112;8.896;2022-12-07T06:45:33;2.97;;;1.87;;
5125;SDS011;63008;53.112;8.896;2022-12-07T06:47:34;5.37;;;2.07;;
5125;SDS011;63008;53.112;8.896;2022-12-07T06:49:38;4.10;;;1.90;;
5125;SDS011;63008;53.112;8.896;2022-12-07T06:51:39;6.80;;;2.43;;
5125;SDS011;63008;53.112;8.896;2022-12-07T06:53:43;8.03;;;1.80;;
5125;SDS011;63008;53.112;8.896;2022-12-07T06:55:44;6.33;;;1.07;;
5125;SDS011;63008;53.112;8.896;2022-12-07T06:57:45;3.13;;;1.57;;
5125;SDS011;63008;53.112;8.896;2022-12-07T06:59:46;3.33;;;1.60;;
5125;SDS011;63008;53.112;8.896;2022-12-07T07:01:47;5.57;;;1.70;;
5125;SDS011;63008;53.112;8.896;2022-12-07T07:03:48;12.17;;;2.27;;
5125;SDS011;63008;53.112;8.896;2022-12-07T07:05:49;4.60;;;2.03;;
5125;SDS011;63008;53.112;8.896;2022-12-07T07:07:50;9.70;;;2.43;;
5125;SDS011;63008;53.112;8.896;2022-12-07T07:09:51;4.10;;;2.50;;
5125;SDS011;63008;53.112;8.896;2022-12-07T07:11:52;6.47;;;3.53;;
5125;SDS011;63008;53.112;8.896;2022-12-07T07:13:53;7.63;;;3.20;;
5125;SDS011;63008;53.112;8.896;2022-12-07T07:15:54;12.03;;;4.00;;
5125;SDS011;63008;53.112;8.896;2022-12-07T07:17:55;16.90;;;3.37;;
5125;SDS011;63008;53.112;8.896;2022-12-07T07:19:56;9.77;;;3.03;;
5125;SDS011;63008;53.112;8.896;2022-12-07T07:21:57;8.40;;;2.80;;
5125;SDS011;63008;53.112;8.896;2022-12-07T07:23:58;9.03;;;2.80;;
5125;SDS011;63008;53.112;8.896;2022-12-07T07:25:59;19.07;;;3.90;;
5125;SDS011;63008;53.112;8.896;2022-12-07T07:28:00;8.63;;;4.07;;
5125;SDS011;63008;53.112;8.896;2022-12-07T07:30:02;8.93;;;4.30;;
5125;SDS011;63008;53.112;8.896;2022-12-07T07:32:04;6.70;;;2.60;;
5125;SDS011;63008;53.112;8.896;2022-12-07T07:34:05;12.10;;;4.70;;
5125;SDS011;63008;53.112;8.896;2022-12-07T07:36:06;14.57;;;3.40;;
5125;SDS011;63008;53.112;8.896;2022-12-07T07:38:07;16.23;;;3.70;;
5125;SDS011;63008;53.112;8.896;2022-12-07T07:40:08;10.50;;;3.80;;
5125;SDS011;63008;53.112;8.896;2022-12-07T07:42:10;12.43;;;3.10;;
5125;SDS011;63008;53.112;8.896;2022-12-07T07:44:11;9.43;;;2.70;;
5125;SDS011;63008;53.112;8.896;2022-12-07T07:46:12;12.47;;;2.30;;
5125;SDS011;63008;53.112;8.896;2022-12-07T07:48:13;8.23;;;3.00;;
5125;SDS011;63008;53.112;8.896;2022-12-07T07:50:14;12.00;;;2.50;;
5125;SDS011;63008;53.112;8.896;2022-12-07T07:52:17;10.30;;;2.27;;
5125;SDS011;63008;53.112;8.896;2022-12-07T07:54:18;11.20;;;2.40;;
5125;SDS011;63008;53.112;8.896;2022-12-07T07:56:19;9.60;;;2.90;;
5125;SDS011;63008;53.112;8.896;2022-12-07T07:58:20;10.87;;;2.63;;
5125;SDS011;63008;53.112;8.896;2022-12-07T08:00:22;8.83;;;2.70;;
5125;SDS011;63008;53.112;8.896;2022-12-07T08:02:23;11.73;;;3.50;;
5125;SDS011;63008;53.112;8.896;2022-12-07T08:04:24;10.90;;;3.43;;
5125;SDS011;63008;53.112;8.896;2022-12-07T08:06:25;13.53;;;3.60;;
5125;SDS011;63008;53.112;8.896;2022-12-07T08:08:26;14.23;;;3.70;;
5125;SDS011;63008;53.112;8.896;2022-12-07T08:10:27;10.73;;;3.13;;
5125;SDS011;63008;53.112;8.896;2022-12-07T08:12:28;10.43;;;3.30;;
5125;SDS011;63008;53.112;8.896;2022-12-07T08:14:29;5.87;;;2.20;;
5125;SDS011;63008;53.112;8.896;2022-12-07T08:16:30;12.80;;;2.87;;
5125;SDS011;63008;53.112;8.896;2022-12-07T08:18:31;14.70;;;2.67;;
5125;SDS011;63008;53.112;8.896;2022-12-07T08:20:36;6.70;;;2.30;;
5125;SDS011;63008;53.112;8.896;2022-12-07T08:22:38;7.90;;;2.03;;
5125;SDS011;63008;53.112;8.896;2022-12-07T08:24:39;9.00;;;2.53;;
5125;SDS011;63008;53.112;8.896;2022-12-07T08:26:40;5.80;;;2.00;;
5125;SDS011;63008;53.112;8.896;2022-12-07T08:28:42;6.93;;;2.00;;
5125;SDS011;63008;53.112;8.896;2022-12-07T08:30:43;10.33;;;2.50;;
5125;SDS011;63008;53.112;8.896;2022-12-07T08:32:45;5.80;;;2.13;;
5125;SDS011;63008;53.112;8.896;2022-12-07T08:34:46;3.43;;;2.13;;
5125;SDS011;63008;53.112;8.896;2022-12-07T08:36:47;4.27;;;1.40;;
5125;SDS011;63008;53.112;8.896;2022-12-07T08:38:49;6.87;;;1.47;;
5125;SDS011;63008;53.112;8.896;2022-12-07T08:40:53;5.07;;;1.83;;
5125;SDS011;63008;53.112;8.896;2022-12-07T08:42:55;8.40;;;3.17;;
5125;SDS011;63008;53.112;8.896;2022-12-07T08:44:56;6.97;;;3.13;;
5125;SDS011;63008;53.112;8.896;2022-12-07T08:46:58;7.13;;;2.50;;
5125;SDS011;63008;53.112;8.896;2022-12-07T08:49:06;8.73;;;2.30;;
5125;SDS011;63008;53.112;8.896;2022-12-07T08:51:11;7.03;;;2.70;;
5125;SDS011;63008;53.112;8.896;2022-12-07T08:53:13;6.60;;;2.40;;
5125;SDS011;63008;53.112;8.896;2022-12-07T08:55:14;3.83;;;1.70;;
5125;SDS011;63008;53.112;8.896;2022-12-07T08:57:15;19.00;;;2.50;;
5125;SDS011;63008;53.112;8.896;2022-12-07T08:59:16;5.50;;;1.70;;
5125;SDS011;63008;53.112;8.896;2022-12-07T09:01:19;5.70;;;1.93;;
5125;SDS011;63008;53.112;8.896;2022-12-07T09:03:20;10.97;;;2.03;;
5125;SDS011;63008;53.112;8.896;2022-12-07T09:05:21;11.80;;;2.57;;
5125;SDS011;63008;53.112;8.896;2022-12-07T09:07:22;5.80;;;2.17;;
5125;SDS011;63008;53.112;8.896;2022-12-07T09:09:24;12.70;;;2.10;;
5125;SDS011;63008;53.112;8.896;2022-12-07T09:11:24;11.60;;;3.13;;
5125;SDS011;63008;53.112;8.896;2022-12-07T09:13:25;12.97;;;3.10;;
5125;SDS011;63008;53.112;8.896;2022-12-07T09:15:29;13.00;;;2.57;;
5125;SDS011;63008;53.112;8.896;2022-12-07T09:17:32;9.00;;;2.70;;
5125;SDS011;63008;53.112;8.896;2022-12-07T09:19:33;10.80;;;4.13;;
5125;SDS011;63008;53.112;8.896;2022-12-07T09:21:34;5.07;;;2.30;;
5125;SDS011;63008;53.112;8.896;2022-12-07T09:23:35;13.80;;;2.27;;
5125;SDS011;63008;53.112;8.896;2022-12-07T09:25:36;7.23;;;1.80;;
5125;SDS011;63008;53.112;8.896;2022-12-07T09:27:37;4.43;;;2.00;;
5125;SDS011;63008;53.112;8.896;2022-12-07T09:29:38;6.53;;;2.00;;
5125;SDS011;63008;53.112;8.896;2022-12-07T09:31:39;12.50;;;2.53;;
5125;SDS011;63008;53.112;8.896;2022-12-07T09:33:41;7.07;;;2.10;;
5125;SDS011;63008;53.112;8.896;2022-12-07T09:35:45;4.77;;;1.70;;
5125;SDS011;63008;53.112;8.896;2022-12-07T09:37:50;8.97;;;2.60;;
5125;SDS011;63008;53.112;8.896;2022-12-07T09:39:51;9.73;;;1.97;;
5125;SDS011;63008;53.112;8.896;2022-12-07T09:41:52;6.57;;;2.07;;
5125;SDS011;63008;53.112;8.896;2022-12-07T09:43:53;6.87;;;2.33;;
5125;SDS011;63008;53.112;8.896;2022-12-07T09:46:03;6.40;;;1.77;;
5125;SDS011;63008;53.112;8.896;2022-12-07T09:48:05;4.20;;;1.23;;
5125;SDS011;63008;53.112;8.896;2022-12-07T09:50:16;3.07;;;1.47;;
5125;SDS011;63008;53.112;8.896;2022-12-07T09:52:26;1.37;;;1.07;;
5125;SDS011;63008;53.112;8.896;2022-12-07T09:54:29;3.13;;;1.40;;
5125;SDS011;63008;53.112;8.896;2022-12-07T09:56:31;8.90;;;1.83;;
5125;SDS011;63008;53.112;8.896;2022-12-07T09:58:32;5.67;;;2.00;;
5125;SDS011;63008;53.112;8.896;2022-12-07T10:00:34;9.33;;;2.33;;
5125;SDS011;63008;53.112;8.896;2022-12-07T10:02:36;5.80;;;1.90;;
5125;SDS011;63008;53.112;8.896;2022-12-07T10:04:42;4.70;;;2.37;;
5125;SDS011;63008;53.112;8.896;2022-12-07T10:06:44;5.67;;;2.37;;
5125;SDS011;63008;53.112;8.896;2022-12-07T10:08:46;12.20;;;2.00;;
5125;SDS011;63008;53.112;8.896;2022-12-07T10:10:50;6.00;;;2.33;;
5125;SDS011;63008;53.112;8.896;2022-12-07T10:14:59;2.93;;;2.10;;
5125;SDS011;63008;53.112;8.896;2022-12-07T10:17:25;3.33;;;1.57;;
5125;SDS011;63008;53.112;8.896;2022-12-07T10:19:29;5.70;;;2.23;;
5125;SDS011;63008;53.112;8.896;2022-12-07T10:21:31;7.10;;;2.30;;
5125;SDS011;63008;53.112;8.896;2022-12-07T10:23:33;7.03;;;3.00;;
5125;SDS011;63008;53.112;8.896;2022-12-07T10:25:36;7.17;;;3.10;;
5125;SDS011;63008;53.112;8.896;2022-12-07T10:27:38;11.27;;;4.60;;
5125;SDS011;63008;53.112;8.896;2022-12-07T10:29:40;7.23;;;4.00;;
5125;SDS011;63008;53.112;8.896;2022-12-07T10:31:52;8.10;;;3.80;;
5125;SDS011;63008;53.112;8.896;2022-12-07T10:34:00;11.50;;;4.03;;
5125;SDS011;63008;53.112;8.896;2022-12-07T10:36:15;13.57;;;4.17;;
5125;SDS011;63008;53.112;8.896;2022-12-07T10:38:26;14.03;;;4.07;;
5125;SDS011;63008;53.112;8.896;2022-12-07T10:40:31;9.30;;;3.90;;
5125;SDS011;63008;53.112;8.896;2022-12-07T10:42:34;10.23;;;4.00;;
5125;SDS011;63008;53.112;8.896;2022-12-07T10:44:35;7.57;;;3.50;;
5125;SDS011;63008;53.112;8.896;2022-12-07T10:46:47;9.10;;;3.63;;
5125;SDS011;63008;53.112;8.896;2022-12-07T10:49:16;9.50;;;4.07;;
5125;SDS011;63008;53.112;8.896;2022-12-07T10:51:50;17.73;;;3.90;;
5125;SDS011;63008;53.112;8.896;2022-12-07T11:03:37;10.80;;;5.43;;
5125;SDS011;63008;53.112;8.896;2022-12-07T11:06:04;9.60;;;5.70;;
5125;SDS011;63008;53.112;8.896;2022-12-07T11:10:40;6.53;;;4.00;;
5125;SDS011;63008;53.112;8.896;2022-12-07T11:17:26;6.27;;;2.77;;
5125;SDS011;63008;53.112;8.896;2022-12-07T11:20:00;9.07;;;2.60;;
5125;SDS011;63008;53.112;8.896;2022-12-07T11:24:18;8.33;;;2.27;;
5125;SDS011;63008;53.112;8.896;2022-12-07T11:26:33;7.63;;;2.30;;
5125;SDS011;63008;53.112;8.896;2022-12-07T11:31:04;11.57;;;3.13;;
5125;SDS011;63008;53.112;8.896;2022-12-07T11:37:49;11.17;;;2.13;;
5125;SDS011;63008;53.112;8.896;2022-12-07T11:39:55;4.93;;;1.50;;
5125;SDS011;63008;53.112;8.896;2022-12-07T11:42:04;7.43;;;2.10;;
5125;SDS011;63008;53.112;8.896;2022-12-07T11:44:18;10.30;;;2.50;;
5125;SDS011;63008;53.112;8.896;2022-12-07T11:46:44;12.13;;;3.30;;
5125;SDS011;63008;53.112;8.896;2022-12-07T11:49:03;4.03;;;1.90;;
5125;SDS011;63008;53.112;8.896;2022-12-07T11:51:12;2.67;;;2.00;;
5125;SDS011;63008;53.112;8.896;2022-12-07T11:53:18;3.70;;;2.20;;
5125;SDS011;63008;53.112;8.896;2022-12-07T11:55:26;5.47;;;1.77;;
5125;SDS011;63008;53.112;8.896;2022-12-07T11:57:48;8.63;;;1.43;;
5125;SDS011;63008;53.112;8.896;2022-12-07T11:59:59;7.27;;;2.50;;
5125;SDS011;63008;53.112;8.896;2022-12-07T12:02:13;5.10;;;2.30;;
5125;SDS011;63008;53.112;8.896;2022-12-07T12:04:19;3.67;;;2.43;;
5125;SDS011;63008;53.112;8.896;2022-12-07T12:06:42;9.67;;;2.70;;
5125;SDS011;63008;53.112;8.896;2022-12-07T12:16:23;5.57;;;1.40;;
5125;SDS011;63008;53.112;8.896;2022-12-07T12:18:48;2.07;;;1.50;;
5125;SDS011;63008;53.112;8.896;2022-12-07T12:21:04;8.33;;;1.90;;
5125;SDS011;63008;53.112;8.896;2022-12-07T12:23:58;7.37;;;2.10;;
5125;SDS011;63008;53.112;8.896;2022-12-07T12:25:39;6.10;;;1.77;;
5125;SDS011;63008;53.112;8.896;2022-12-07T12:27:44;7.33;;;2.20;;
5125;SDS011;63008;53.112;8.896;2022-12-07T12:29:51;6.20;;;1.20;;
5125;SDS011;63008;53.112;8.896;2022-12-07T12:32:04;3.53;;;1.60;;
5125;SDS011;63008;53.112;8.896;2022-12-07T12:40:59;10.33;;;1.67;;
5125;SDS011;63008;53.112;8.896;2022-12-07T12:43:02;6.83;;;1.70;;
5125;SDS011;63008;53.112;8.896;2022-12-07T12:45:04;5.23;;;1.27;;
5125;SDS011;63008;53.112;8.896;2022-12-07T12:54:28;4.53;;;1.33;;
5125;SDS011;63008;53.112;8.896;2022-12-07T12:56:34;6.93;;;1.23;;
5125;SDS011;63008;53.112;8.896;2022-12-07T12:58:43;6.40;;;1.50;;
5125;SDS011;63008;53.112;8.896;2022-12-07T13:00:46;2.97;;;0.90;;
5125;SDS011;63008;53.112;8.896;2022-12-07T13:02:53;6.73;;;1.60;;
5125;SDS011;63008;53.112;8.896;2022-12-07T13:07:11;9.03;;;5.30;;
5125;SDS011;63008;53.112;8.896;2022-12-07T13:09:20;4.40;;;1.60;;
5125;SDS011;63008;53.112;8.896;2022-12-07T13:11:34;4.97;;;1.30;;
5125;SDS011;63008;53.112;8.896;2022-12-07T13:13:39;4.53;;;1.20;;
5125;SDS011;63008;53.112;8.896;2022-12-07T13:17:55;5.40;;;1.47;;
5125;SDS011;63008;53.112;8.896;2022-12-07T13:20:02;4.93;;;1.07;;
5125;SDS011;63008;53.112;8.896;2022-12-07T13:24:31;2.40;;;1.10;;
5125;SDS011;63008;53.112;8.896;2022-12-07T13:26:36;1.43;;;1.33;;
5125;SDS011;63008;53.112;8.896;2022-12-07T13:28:39;4.63;;;1.03;;
5125;SDS011;63008;53.112;8.896;2022-12-07T13:33:26;6.17;;;1.70;;
5125;SDS011;63008;53.112;8.896;2022-12-07T13:35:29;6.97;;;2.53;;
5125;SDS011;63008;53.112;8.896;2022-12-07T13:37:31;1.90;;;1.57;;
5125;SDS011;63008;53.112;8.896;2022-12-07T13:39:33;1.70;;;1.60;;
5125;SDS011;63008;53.112;8.896;2022-12-07T13:41:35;4.70;;;1.40;;
5125;SDS011;63008;53.112;8.896;2022-12-07T13:43:47;2.87;;;1.27;;
5125;SDS011;63008;53.112;8.896;2022-12-07T13:46:10;1.43;;;0.83;;
5125;SDS011;63008;53.112;8.896;2022-12-07T13:48:34;2.70;;;0.90;;
5125;SDS011;63008;53.112;8.896;2022-12-07T13:50:57;4.77;;;2.57;;
5125;SDS011;63008;53.112;8.896;2022-12-07T13:53:00;5.10;;;2.30;;